Time;durP1;ratioP1;P1;durP2;ratioP2;P2;SDS_P1;SDS_P2;PMS_P1;PMS_P2;Temp;Humidity;BMP_temperature;BMP_pressure;BME280_temperature;BME280_humidity;BME280_pressure;Samples;Min_cycle;Max_cycle;Signal;HPM_P1;HPM_P2
2022/06/10 00:02:43;;;;;;;1.13;1.00;;;17.70;97.30;18.70;96608.00;;;;5070601;28;20208;-70
2022/06/10 00:05:36;;;;;;;1.47;0.90;;;17.60;97.20;18.80;96605.00;;;;5059811;28;20683;-70
2022/06/10 00:08:28;;;;;;;1.30;1.07;;;17.60;97.20;18.70;96600.00;;;;5067520;28;20192;-71
2022/06/10 00:11:18;;;;;;;1.03;0.87;;;17.60;97.00;18.80;96611.00;;;;5070455;28;20240;-70
2022/06/10 00:14:07;;;;;;;1.07;0.93;;;17.60;97.60;18.50;96616.00;;;;5071548;28;20970;-72
2022/06/10 00:16:55;;;;;;;1.30;1.20;;;17.60;98.20;18.80;96622.00;;;;5070524;28;20232;-71
2022/06/10 00:19:46;;;;;;;2.13;1.00;;;17.60;97.50;18.70;96605.00;;;;5060773;28;20250;-70
2022/06/10 00:22:34;;;;;;;1.03;1.03;;;17.40;97.20;18.80;96626.00;;;;5070067;28;20203;-70
2022/06/10 00:25:24;;;;;;;2.87;1.13;;;17.60;97.50;18.70;96625.00;;;;5070557;28;20228;-71
2022/06/10 00:28:14;;;;;;;2.50;1.20;;;17.60;98.10;18.60;96617.00;;;;5057329;28;20204;-70
2022/06/10 00:31:03;;;;;;;1.00;1.00;;;17.60;97.60;18.80;96621.00;;;;5071680;28;20220;-70
2022/06/10 00:33:53;;;;;;;0.93;0.93;;;17.70;97.10;18.90;96617.00;;;;5069126;28;20208;-72
2022/06/10 00:36:43;;;;;;;0.80;0.80;;;17.70;97.40;18.80;96610.00;;;;5070187;28;20216;-68
2022/06/10 00:39:34;;;;;;;5.87;1.20;;;17.70;97.70;18.80;96617.00;;;;5063893;28;20207;-68
2022/06/10 00:42:23;;;;;;;1.43;0.90;;;17.70;97.50;18.90;96604.00;;;;5067699;28;20929;-70
2022/06/10 00:45:56;;;;;;;1.23;1.13;;;17.70;97.20;18.80;96616.00;;;;5069494;28;20617;-67
2022/06/10 00:48:50;;;;;;;1.27;0.93;;;17.70;96.90;19.00;96613.00;;;;5069593;28;20211;-69
2022/06/10 00:51:46;;;;;;;1.10;0.90;;;17.80;96.80;19.00;96601.00;;;;5069793;28;20238;-70
2022/06/10 00:54:39;;;;;;;0.80;0.80;;;17.80;97.50;19.00;96612.00;;;;5071306;28;20741;-71
2022/06/10 00:57:34;;;;;;;0.90;0.70;;;17.80;97.90;18.90;96609.00;;;;5070144;28;20204;-71
2022/06/10 01:00:23;;;;;;;0.70;0.70;;;17.70;97.30;19.10;96615.00;;;;5070088;28;20215;-71
2022/06/10 01:03:12;;;;;;;0.97;0.90;;;17.70;97.00;19.10;96615.00;;;;5069852;28;20212;-71
2022/06/10 01:06:01;;;;;;;1.30;1.20;;;17.70;97.20;19.00;96623.00;;;;5069551;28;20230;-70
2022/06/10 01:08:52;;;;;;;1.77;1.67;;;17.70;97.60;18.80;96605.00;;;;5057624;28;20211;-69
2022/06/10 01:12:16;;;;;;;0.63;0.60;;;17.60;98.30;18.80;96619.00;;;;5069619;28;20216;-71
2022/06/10 01:15:28;;;;;;;1.40;1.03;;;17.60;97.70;19.00;96621.00;;;;5039351;28;20745;-69
2022/06/10 01:18:31;;;;;;;0.90;0.80;;;17.60;97.20;19.00;96624.00;;;;5067039;28;20258;-68
2022/06/10 01:21:57;;;;;;;0.50;0.50;;;17.70;97.20;19.00;96633.00;;;;5065957;28;20200;-68
2022/06/10 01:25:21;;;;;;;0.30;0.30;;;17.70;97.40;18.70;96610.00;;;;5064266;28;20192;-67
2022/06/10 01:28:23;;;;;;;1.53;0.50;;;17.70;97.80;18.80;96622.00;;;;5054152;28;20200;-70
2022/06/10 01:31:27;;;;;;;1.10;0.63;;;17.60;98.00;18.90;96641.00;;;;5057579;28;20223;-72
2022/06/10 01:34:28;;;;;;;0.60;0.60;;;17.60;97.70;18.60;96623.00;;;;5069652;28;20208;-70
2022/06/10 01:37:27;;;;;;;0.43;0.40;;;17.60;98.60;18.70;96620.00;;;;5069041;28;20276;-71
2022/06/10 01:40:28;;;;;;;0.97;0.57;;;17.50;98.60;18.70;96624.00;;;;5056275;28;20196;-68
2022/06/10 01:43:33;;;;;;;1.83;0.47;;;17.50;98.10;18.80;96625.00;;;;5066073;28;20198;-72
2022/06/10 01:46:30;;;;;;;1.30;0.73;;;17.50;98.60;18.80;96627.00;;;;5058987;28;20254;-71
2022/06/10 01:49:25;;;;;;;0.87;0.70;;;17.60;98.10;18.90;96630.00;;;;5069684;28;20207;-70
2022/06/10 01:52:23;;;;;;;0.50;0.50;;;17.60;97.90;18.80;96631.00;;;;5067819;28;20293;-71
2022/06/10 01:55:19;;;;;;;0.50;0.40;;;17.60;98.30;18.50;96615.00;;;;5060830;28;20219;-67
2022/06/10 01:58:14;;;;;;;0.33;0.33;;;17.60;97.60;18.70;96645.00;;;;5056824;28;20204;-71
2022/06/10 02:01:08;;;;;;;0.60;0.60;;;17.60;97.30;18.90;96633.00;;;;5059082;28;20208;-69
2022/06/10 02:04:03;;;;;;;1.10;0.50;;;17.70;97.60;18.90;96637.00;;;;5052162;28;20204;-72
2022/06/10 02:06:57;;;;;;;0.50;0.47;;;17.70;98.10;18.90;96646.00;;;;5060337;28;20222;-70
2022/06/10 02:09:52;;;;;;;0.30;0.30;;;17.70;97.80;18.70;96650.00;;;;5068730;28;20223;-71
2022/06/10 02:12:46;;;;;;;0.40;0.40;;;17.60;98.20;18.90;96652.00;;;;5069060;28;20195;-69
2022/06/10 02:15:40;;;;;;;1.03;0.67;;;17.70;97.40;18.90;96654.00;;;;5068953;28;20240;-70
2022/06/10 02:18:36;;;;;;;3.63;0.60;;;17.70;97.60;18.90;96663.00;;;;5065780;28;20196;-70
2022/06/10 02:21:32;;;;;;;0.30;0.30;;;17.70;98.00;18.80;96670.00;;;;5066595;28;20208;-70
2022/06/10 02:24:28;;;;;;;1.17;0.40;;;17.70;98.60;18.80;96677.00;;;;5068982;28;20204;-71
2022/06/10 02:27:21;;;;;;;0.37;0.37;;;17.70;97.10;19.10;96668.00;;;;5068676;28;20196;-71
2022/06/10 02:30:15;;;;;;;0.50;0.47;;;17.70;97.50;19.00;96671.00;;;;5059159;28;20200;-69
2022/06/10 02:33:06;;;;;;;0.70;0.40;;;17.70;97.50;19.00;96671.00;;;;5068050;28;20200;-72
2022/06/10 02:36:05;;;;;;;1.10;0.60;;;17.70;97.70;19.00;96675.00;;;;5068183;28;20223;-71
2022/06/10 02:39:04;;;;;;;0.53;0.37;;;17.70;97.60;19.00;96671.00;;;;5054901;28;20200;-71
2022/06/10 02:42:04;;;;;;;1.03;0.80;;;17.70;98.40;18.70;96667.00;;;;5068227;28;20203;-73
2022/06/10 02:45:07;;;;;;;0.53;0.53;;;17.70;98.40;18.90;96668.00;;;;5062007;28;20224;-70
2022/06/10 02:48:01;;;;;;;0.50;0.37;;;17.60;98.00;18.90;96684.00;;;;5061053;28;20207;-69
2022/06/10 02:50:51;;;;;;;0.60;0.60;;;17.60;97.90;18.80;96670.00;;;;5066261;28;20618;-70
2022/06/10 02:53:39;;;;;;;2.10;0.40;;;17.60;97.60;18.90;96681.00;;;;5059796;28;20231;-70
2022/06/10 02:56:31;;;;;;;0.57;0.50;;;17.60;97.80;18.80;96684.00;;;;5072821;28;20586;-71
2022/06/10 03:02:43;;;;;;;0.60;0.60;;;17.70;97.60;18.90;96704.00;;;;5071375;28;20195;-70
2022/06/10 03:05:43;;;;;;;0.60;0.60;;;17.70;97.70;19.00;96712.00;;;;5060737;28;20239;-72
2022/06/10 03:08:37;;;;;;;0.60;0.60;;;17.70;97.80;18.90;96720.00;;;;5069548;28;20576;-68
2022/06/10 03:11:37;;;;;;;0.60;0.60;;;17.70;97.60;19.00;96727.00;;;;5072230;28;20224;-69
2022/06/10 03:14:41;;;;;;;0.57;0.50;;;17.70;97.60;18.90;96731.00;;;;5072698;28;20682;-69
2022/06/10 03:17:40;;;;;;;2.40;1.00;;;17.70;97.30;18.90;96722.00;;;;5071014;28;20203;-71
2022/06/10 03:20:36;;;;;;;1.33;0.60;;;17.70;98.10;19.10;96740.00;;;;5063188;28;20203;-71
2022/06/10 03:23:36;;;;;;;0.57;0.57;;;17.70;98.30;18.60;96740.00;;;;5072241;28;20225;-67
2022/06/10 03:26:36;;;;;;;0.57;0.53;;;17.60;98.20;18.90;96736.00;;;;5067879;28;20230;-68
2022/06/10 03:29:33;;;;;;;1.70;0.50;;;17.60;98.40;18.90;96750.00;;;;5071220;28;20196;-69
2022/06/10 03:32:28;;;;;;;0.70;0.70;;;17.60;98.80;19.00;96748.00;;;;5068880;28;20220;-69
2022/06/10 03:35:22;;;;;;;1.73;0.43;;;17.60;98.90;18.80;96753.00;;;;5071277;28;20231;-71
2022/06/10 03:38:14;;;;;;;1.00;0.60;;;17.60;98.30;18.90;96759.00;;;;5063340;28;20197;-71
2022/06/10 03:41:03;;;;;;;0.80;0.70;;;17.60;98.80;18.80;96759.00;;;;5064089;28;20196;-72
2022/06/10 03:43:57;;;;;;;0.60;0.60;;;17.50;98.60;18.80;96752.00;;;;5067379;28;20200;-69
2022/06/10 03:46:50;;;;;;;2.13;0.60;;;17.50;98.50;18.70;96761.00;;;;5064547;28;20227;-68
2022/06/10 03:49:45;;;;;;;0.83;0.57;;;17.60;97.80;18.80;96762.00;;;;5071296;28;20207;-67
2022/06/10 03:52:38;;;;;;;0.50;0.50;;;17.60;97.80;18.90;96765.00;;;;5069948;28;20234;-69
2022/06/10 03:55:27;;;;;;;0.50;0.50;;;17.60;98.00;18.90;96762.00;;;;5070885;28;20604;-71
2022/06/10 03:58:16;;;;;;;0.57;0.57;;;17.60;98.90;18.90;96767.00;;;;5070964;28;20196;-71
2022/06/10 04:01:06;;;;;;;4.53;1.17;;;17.60;98.80;18.80;96765.00;;;;5071032;28;20204;-71
2022/06/10 04:03:55;;;;;;;1.20;0.60;;;17.60;99.80;18.80;96760.00;;;;5054525;28;20234;-70
2022/06/10 04:06:44;;;;;;;0.93;0.70;;;17.60;98.90;18.90;96771.00;;;;5057585;28;20235;-71
2022/06/10 04:09:49;;;;;;;0.90;0.50;;;17.50;99.50;18.80;96768.00;;;;5067577;28;20281;-70
2022/06/10 04:12:37;;;;;;;1.37;0.70;;;17.50;99.90;18.70;96771.00;;;;5068738;28;20220;-72
2022/06/10 04:15:27;;;;;;;0.50;0.50;;;17.50;99.90;18.40;96761.00;;;;5056756;28;20224;-68
2022/06/10 04:18:17;;;;;;;0.70;0.67;;;17.40;99.00;18.60;96750.00;;;;5061713;28;20982;-68
2022/06/10 04:21:06;;;;;;;1.30;0.50;;;17.40;98.90;18.60;96760.00;;;;5054730;28;20211;-71
2022/06/10 04:23:55;;;;;;;0.60;0.60;;;17.40;99.90;18.40;96777.00;;;;5069585;28;20200;-70
2022/06/10 04:26:44;;;;;;;0.87;0.83;;;17.40;99.90;18.40;96786.00;;;;5059584;28;20238;-71
2022/06/10 04:29:33;;;;;;;0.67;0.67;;;17.40;99.90;18.40;96776.00;;;;5059746;28;20212;-68
2022/06/10 04:32:21;;;;;;;0.60;0.50;;;17.30;99.90;18.30;96777.00;;;;5061056;28;20727;-69
2022/06/10 04:35:12;;;;;;;0.50;0.50;;;17.20;99.90;18.30;96780.00;;;;5069951;28;20220;-71
2022/06/10 04:38:00;;;;;;;1.30;1.20;;;17.20;99.90;18.40;96788.00;;;;5063209;28;20193;-70
2022/06/10 04:40:52;;;;;;;0.50;0.50;;;17.10;99.90;18.30;96787.00;;;;5062044;28;20580;-71
2022/06/10 04:43:42;;;;;;;0.70;0.70;;;17.10;99.90;18.00;96792.00;;;;5059804;28;20233;-73
2022/06/10 04:46:37;;;;;;;0.60;0.60;;;17.00;99.90;18.10;96785.00;;;;5059053;28;20224;-73
2022/06/10 04:49:25;;;;;;;0.87;0.87;;;17.00;99.90;18.40;96808.00;;;;5064027;28;20192;-72
2022/06/10 04:52:16;;;;;;;1.07;0.70;;;17.00;99.90;18.30;96804.00;;;;5061050;28;20228;-73
2022/06/10 04:55:06;;;;;;;1.40;1.20;;;17.00;99.90;18.30;96805.00;;;;5064057;28;20220;-71
2022/06/10 04:57:56;;;;;;;0.60;0.60;;;17.00;99.90;18.40;96804.00;;;;5061385;28;20200;-70
2022/06/10 05:00:49;;;;;;;0.60;0.60;;;17.00;99.90;18.50;96800.00;;;;5062767;28;20207;-71
2022/06/10 05:03:38;;;;;;;0.67;0.67;;;17.00;99.90;18.40;96811.00;;;;5055202;28;20224;-70
2022/06/10 05:06:27;;;;;;;0.90;0.90;;;17.00;99.90;17.80;96800.00;;;;5054961;28;20687;-71
2022/06/10 05:09:17;;;;;;;1.40;1.30;;;17.00;99.90;18.30;96815.00;;;;5058706;28;20207;-73
2022/06/10 05:12:07;;;;;;;0.70;0.70;;;17.00;99.90;18.60;96819.00;;;;5058240;28;20224;-72
2022/06/10 05:14:56;;;;;;;1.17;0.97;;;17.00;99.90;18.40;96811.00;;;;5052716;28;20232;-70
2022/06/10 05:17:45;;;;;;;1.27;0.83;;;17.00;99.90;18.60;96811.00;;;;5059957;28;20200;-70
2022/06/10 05:20:38;;;;;;;1.03;0.83;;;17.10;99.90;18.40;96812.00;;;;5060594;28;20197;-71
2022/06/10 05:23:28;;;;;;;1.43;0.67;;;17.10;99.90;18.50;96831.00;;;;5060561;28;20209;-68
2022/06/10 05:26:18;;;;;;;0.67;0.67;;;17.10;99.90;18.50;96838.00;;;;5059700;28;20219;-70
2022/06/10 05:29:07;;;;;;;1.03;0.90;;;17.10;99.90;18.60;96831.00;;;;5059895;28;20200;-69
2022/06/10 05:31:56;;;;;;;2.20;0.90;;;17.20;99.90;18.70;96835.00;;;;5062880;28;20200;-69
2022/06/10 05:34:47;;;;;;;1.30;1.20;;;17.20;99.90;18.70;96841.00;;;;5058345;28;20722;-69
2022/06/10 05:37:36;;;;;;;0.90;0.90;;;17.20;99.90;18.80;96853.00;;;;5061074;28;20200;-70
2022/06/10 05:40:31;;;;;;;1.73;0.83;;;17.30;99.90;18.80;96847.00;;;;5056105;28;20209;-72
2022/06/10 05:43:21;;;;;;;1.33;1.07;;;17.30;99.90;18.70;96847.00;;;;5057374;28;20208;-70
2022/06/10 05:46:10;;;;;;;1.23;1.20;;;17.30;99.90;18.80;96855.00;;;;5049832;28;20216;-70
2022/06/10 05:48:59;;;;;;;0.80;0.80;;;17.30;99.90;18.90;96855.00;;;;5059212;28;20207;-70
2022/06/10 05:51:48;;;;;;;1.53;0.80;;;17.40;99.90;18.80;96856.00;;;;5059261;28;20196;-72
2022/06/10 05:54:38;;;;;;;0.87;0.73;;;17.40;99.90;18.80;96856.00;;;;5058899;28;20201;-70
2022/06/10 05:57:27;;;;;;;2.80;0.70;;;17.40;99.90;18.80;96862.00;;;;5063012;28;20663;-70
2022/06/10 06:00:22;;;;;;;4.47;1.23;;;17.40;99.90;18.80;96856.00;;;;5055319;28;20660;-69
2022/06/10 06:03:10;;;;;;;1.23;0.93;;;17.40;99.90;18.80;96864.00;;;;5061687;28;20565;-69
2022/06/10 06:06:00;;;;;;;0.63;0.63;;;17.40;99.90;18.70;96871.00;;;;5056752;28;20223;-68
2022/06/10 06:08:49;;;;;;;0.87;0.80;;;17.40;99.90;18.60;96868.00;;;;5061249;28;20193;-70
2022/06/10 06:11:38;;;;;;;0.80;0.80;;;17.40;99.90;18.60;96870.00;;;;5058603;28;20208;-71
2022/06/10 06:14:28;;;;;;;0.60;0.60;;;17.30;99.90;18.90;96868.00;;;;5057255;28;20211;-72
2022/06/10 06:17:21;;;;;;;1.20;0.90;;;17.40;99.90;19.00;96871.00;;;;5060550;28;20659;-71
2022/06/10 06:20:14;;;;;;;3.50;0.90;;;17.40;99.90;19.20;96870.00;;;;5052959;28;20196;-71
2022/06/10 06:23:03;;;;;;;0.87;0.80;;;17.50;99.90;19.30;96881.00;;;;5062176;28;20204;-71
2022/06/10 06:25:54;;;;;;;1.50;0.70;;;17.60;99.90;19.40;96889.00;;;;5057064;28;20228;-72
2022/06/10 06:28:43;;;;;;;1.23;1.07;;;17.70;99.90;19.10;96878.00;;;;5060716;28;20694;-72
2022/06/10 06:31:32;;;;;;;0.87;0.87;;;17.90;99.90;19.50;96882.00;;;;5068477;28;20567;-72
2022/06/10 06:34:24;;;;;;;1.30;0.77;;;17.90;99.90;19.50;96882.00;;;;5062048;28;20226;-73
2022/06/10 06:37:15;;;;;;;0.70;0.70;;;18.00;99.90;19.10;96889.00;;;;5059310;28;20196;-69
2022/06/10 06:40:04;;;;;;;1.13;0.73;;;18.00;99.90;19.50;96891.00;;;;5058925;28;20196;-69
2022/06/10 06:42:53;;;;;;;1.60;0.80;;;18.00;99.90;19.30;96883.00;;;;5064157;28;20196;-72
2022/06/10 06:45:44;;;;;;;4.20;0.90;;;18.10;99.90;19.90;96900.00;;;;5066030;28;20228;-71
2022/06/10 06:48:33;;;;;;;0.97;0.60;;;18.20;99.90;19.80;96891.00;;;;5065842;28;20210;-72
2022/06/10 06:51:23;;;;;;;1.20;1.10;;;18.30;99.90;19.80;96893.00;;;;5068069;28;20200;-69
2022/06/10 06:54:12;;;;;;;1.13;0.73;;;18.40;99.90;20.00;96896.00;;;;5066248;28;20453;-69
2022/06/10 06:57:01;;;;;;;0.90;0.90;;;18.40;99.90;19.90;96896.00;;;;5067313;28;20196;-71
2022/06/10 06:59:50;;;;;;;0.83;0.70;;;18.40;99.90;19.70;96897.00;;;;5060409;28;20219;-71
2022/06/10 07:02:39;;;;;;;1.80;0.80;;;18.50;99.90;20.00;96901.00;;;;5061819;28;20227;-72
2022/06/10 07:05:28;;;;;;;2.23;0.70;;;18.50;99.90;20.00;96904.00;;;;5059236;28;20208;-72
2022/06/10 07:08:18;;;;;;;0.77;0.60;;;18.50;99.90;20.10;96903.00;;;;5061841;28;20207;-71
2022/06/10 07:11:09;;;;;;;0.40;0.40;;;18.50;99.90;19.70;96886.00;;;;5059985;28;20223;-69
2022/06/10 07:13:58;;;;;;;0.70;0.70;;;18.60;99.90;20.30;96898.00;;;;5056240;28;20235;-72
2022/06/10 07:16:47;;;;;;;0.60;0.60;;;18.70;99.90;20.80;96905.00;;;;5062093;28;20236;-70
2022/06/10 07:19:35;;;;;;;2.63;0.87;;;18.90;99.90;20.70;96879.00;;;;5070121;28;20683;-71
2022/06/10 07:22:24;;;;;;;0.63;0.63;;;19.10;99.90;21.40;96916.00;;;;5071699;28;20200;-71
2022/06/10 07:25:14;;;;;;;0.50;0.50;;;19.30;99.90;21.10;96906.00;;;;5066499;28;20703;-72
2022/06/10 07:28:04;;;;;;;1.40;0.70;;;19.50;99.90;21.20;96912.00;;;;5056950;28;20200;-71
2022/06/10 07:30:53;;;;;;;0.80;0.80;;;19.60;99.90;21.30;96926.00;;;;5067191;28;20211;-75
2022/06/10 07:33:41;;;;;;;1.57;0.50;;;19.60;99.90;20.80;96916.00;;;;5070876;28;20220;-67
2022/06/10 07:36:30;;;;;;;0.70;0.57;;;19.70;98.70;20.30;96918.00;;;;5051618;28;20699;-67
2022/06/10 07:39:19;;;;;;;0.70;0.70;;;19.60;99.40;20.90;96916.00;;;;5058740;28;20200;-68
2022/06/10 07:42:08;;;;;;;0.57;0.50;;;19.60;99.00;21.10;96929.00;;;;5065250;28;20192;-70
2022/06/10 07:44:57;;;;;;;0.60;0.40;;;19.60;99.60;21.30;96918.00;;;;5068018;28;20227;-71
2022/06/10 07:47:46;;;;;;;0.60;0.60;;;19.70;99.90;21.30;96922.00;;;;5068069;28;20212;-73
2022/06/10 07:50:35;;;;;;;0.50;0.47;;;19.80;98.80;21.40;96919.00;;;;5066464;28;20200;-72
2022/06/10 07:53:24;;;;;;;0.60;0.60;;;19.90;99.10;21.50;96932.00;;;;5060790;28;20224;-71
2022/06/10 07:56:15;;;;;;;0.50;0.50;;;19.90;98.30;21.60;96934.00;;;;5056991;28;20213;-69
2022/06/10 07:59:06;;;;;;;1.00;0.70;;;20.00;98.60;21.60;96939.00;;;;5058255;28;20209;-70
2022/06/10 08:01:54;;;;;;;0.60;0.60;;;20.10;98.70;21.30;96936.00;;;;5057383;28;20200;-72
2022/06/10 08:04:43;;;;;;;0.93;0.67;;;20.10;98.70;21.00;96937.00;;;;5055056;28;20204;-71
2022/06/10 08:07:32;;;;;;;0.60;0.60;;;20.00;97.90;21.50;96940.00;;;;5062465;28;20213;-72
2022/06/10 08:10:26;;;;;;;1.13;0.60;;;20.00;98.60;21.20;96947.00;;;;5057904;28;20212;-71
2022/06/10 08:13:15;;;;;;;0.57;0.57;;;19.90;97.70;21.40;96940.00;;;;5062883;28;20204;-72
2022/06/10 08:16:06;;;;;;;1.00;0.80;;;20.00;98.50;21.40;96953.00;;;;5063921;28;20615;-71
2022/06/10 08:18:55;;;;;;;2.23;0.67;;;20.00;98.10;21.30;96964.00;;;;5058923;28;20732;-73
2022/06/10 08:24:50;;;;;;;0.80;0.80;;;19.90;97.40;21.30;96960.00;;;;5065057;28;20195;-73
2022/06/10 08:27:39;;;;;;;0.80;0.63;;;19.80;98.50;21.50;96963.00;;;;5057951;28;20318;-73
2022/06/10 08:30:28;;;;;;;0.90;0.80;;;19.90;98.30;21.70;96952.00;;;;5060340;28;20200;-73
2022/06/10 08:33:19;;;;;;;0.57;0.57;;;20.00;99.00;22.10;96956.00;;;;5059189;28;20211;-73
2022/06/10 08:36:09;;;;;;;0.50;0.50;;;20.20;99.50;22.30;96979.00;;;;5063713;28;20220;-73
2022/06/10 08:38:58;;;;;;;0.60;0.60;;;20.40;98.20;22.40;96977.00;;;;5059280;28;20214;-73
2022/06/10 08:42:08;;;;;;;0.80;0.80;;;20.50;97.70;22.10;96987.00;;;;5058303;28;20204;-73
2022/06/10 08:45:00;;;;;;;1.03;0.70;;;20.60;98.00;21.30;96986.00;;;;5058825;28;20220;-72
2022/06/10 08:48:06;;;;;;;0.60;0.60;;;20.50;97.40;21.60;96990.00;;;;5055785;28;20203;-72
2022/06/10 08:51:11;;;;;;;0.60;0.60;;;20.40;97.10;22.00;96999.00;;;;5057983;28;20276;-72
2022/06/10 08:54:15;;;;;;;1.23;0.50;;;20.40;97.50;22.30;96985.00;;;;5064076;28;21269;-73
2022/06/10 08:57:15;;;;;;;0.80;0.70;;;20.50;98.30;22.20;96984.00;;;;5056227;28;20223;-72
2022/06/10 09:00:12;;;;;;;2.37;0.77;;;20.60;98.00;21.70;97007.00;;;;5057391;28;20203;-72
2022/06/10 09:03:09;;;;;;;0.83;0.40;;;20.60;97.50;22.10;96993.00;;;;5060984;28;20200;-73
2022/06/10 09:06:03;;;;;;;0.57;0.50;;;20.70;97.20;22.10;97007.00;;;;5058175;28;20223;-72
2022/06/10 09:08:57;;;;;;;1.97;0.80;;;20.70;97.10;22.20;97008.00;;;;5061494;28;20196;-73
2022/06/10 09:11:53;;;;;;;0.83;0.83;;;20.70;96.60;22.20;97010.00;;;;5059362;28;20210;-73
2022/06/10 09:14:43;;;;;;;0.40;0.40;;;20.50;96.20;21.80;97025.00;;;;5056618;28;20215;-72
2022/06/10 09:17:37;;;;;;;0.87;0.60;;;20.70;96.60;22.20;97032.00;;;;5058805;28;20192;-72
2022/06/10 09:20:33;;;;;;;1.00;0.73;;;20.70;96.80;21.80;97026.00;;;;5058585;28;20236;-71
2022/06/10 09:23:32;;;;;;;1.33;0.60;;;20.60;97.60;22.20;97029.00;;;;5061628;28;20660;-72
2022/06/10 09:26:41;;;;;;;0.77;0.77;;;20.60;97.50;22.30;97035.00;;;;5063321;28;20215;-73
2022/06/10 09:29:29;;;;;;;1.20;0.80;;;20.70;97.40;21.90;97041.00;;;;5061156;28;20208;-72
2022/06/10 09:32:29;;;;;;;0.73;0.60;;;20.60;96.30;22.30;97028.00;;;;5062502;28;20204;-71
2022/06/10 09:35:28;;;;;;;0.87;0.63;;;20.60;96.40;22.80;96993.00;;;;5056907;28;20224;-71
2022/06/10 09:38:26;;;;;;;0.50;0.50;;;20.80;96.50;23.10;97016.00;;;;5058567;28;20196;-70
2022/06/10 09:41:32;;;;;;;0.40;0.30;;;21.30;95.90;23.30;97034.00;;;;5052874;28;21001;-73
2022/06/10 09:44:28;;;;;;;0.53;0.50;;;21.50;95.20;23.80;97019.00;;;;5063956;28;20192;-74
2022/06/10 09:47:30;;;;;;;0.60;0.60;;;21.80;95.40;23.90;97017.00;;;;5061188;28;20667;-73
2022/06/10 09:50:26;;;;;;;0.63;0.63;;;22.10;94.20;24.20;96996.00;;;;5059594;28;20204;-73
2022/06/10 09:53:40;;;;;;;0.63;0.63;;;22.40;94.60;24.10;97024.00;;;;5059152;28;20212;-71
2022/06/10 09:56:53;;;;;;;0.57;0.37;;;22.50;93.90;24.40;97038.00;;;;5058086;28;20217;-73
2022/06/10 09:59:51;;;;;;;0.70;0.53;;;22.70;94.20;24.00;97039.00;;;;5058942;28;20199;-73
2022/06/10 10:03:05;;;;;;;0.60;0.60;;;22.70;93.90;23.20;97036.00;;;;5058394;28;20225;-73
2022/06/10 10:06:19;;;;;;;0.80;0.80;;;22.60;92.60;23.60;97050.00;;;;5060771;28;20704;-73
2022/06/10 10:09:24;;;;;;;0.57;0.57;;;22.40;92.80;24.00;97055.00;;;;5055523;28;20679;-72
2022/06/10 10:12:25;;;;;;;0.70;0.53;;;22.40;93.70;23.80;97048.00;;;;5058161;28;20204;-72
2022/06/10 10:15:25;;;;;;;0.80;0.80;;;22.40;92.60;23.20;97046.00;;;;5061164;28;20224;-72
2022/06/10 10:18:42;;;;;;;0.53;0.53;;;22.40;92.50;23.80;97034.00;;;;5059078;28;20201;-71
2022/06/10 10:21:44;;;;;;;0.73;0.70;;;22.40;91.60;25.40;97053.00;;;;5062018;28;20210;-72
2022/06/10 10:24:40;;;;;;;0.50;0.50;;;22.80;93.80;24.40;97043.00;;;;5056308;28;20731;-71
2022/06/10 10:27:33;;;;;;;0.77;0.77;;;22.90;93.20;24.20;97062.00;;;;5061680;28;20201;-73
2022/06/10 10:30:31;;;;;;;1.13;0.83;;;22.90;91.90;24.10;97071.00;;;;5054222;28;20255;-73
2022/06/10 10:33:20;;;;;;;0.90;0.83;;;22.80;92.00;23.00;97079.00;;;;5061169;28;20223;-70
2022/06/10 10:36:35;;;;;;;0.83;0.70;;;22.60;91.10;22.70;97060.00;;;;5055468;28;20220;-72
2022/06/10 10:39:32;;;;;;;1.20;0.60;;;22.20;91.90;22.90;97067.00;;;;5056080;28;20212;-70
2022/06/10 10:42:29;;;;;;;1.20;0.70;;;22.00;91.60;22.30;97068.00;;;;5060659;28;20211;-66
2022/06/10 10:45:24;;;;;;;2.83;0.97;;;21.90;91.70;22.90;97080.00;;;;5057280;28;20220;-72
2022/06/10 10:48:19;;;;;;;2.20;0.70;;;21.80;93.10;22.50;97068.00;;;;5056590;28;20192;-72
2022/06/10 10:51:22;;;;;;;2.20;0.73;;;21.60;92.40;23.60;97088.00;;;;5057505;28;20215;-72
2022/06/10 10:54:34;;;;;;;1.60;0.60;;;21.70;93.20;22.80;97082.00;;;;5060965;28;20232;-70
2022/06/10 10:57:29;;;;;;;0.80;0.80;;;21.70;92.30;22.70;97082.00;;;;5051749;28;20204;-72
2022/06/10 11:00:33;;;;;;;1.00;1.00;;;21.70;92.70;23.10;97076.00;;;;5059286;28;20196;-73
2022/06/10 11:03:26;;;;;;;1.13;1.03;;;21.50;93.30;23.50;97082.00;;;;5058639;28;20215;-73
2022/06/10 11:06:27;;;;;;;1.13;1.13;;;21.70;93.80;22.40;97077.00;;;;5053583;28;20224;-69
2022/06/10 11:09:20;;;;;;;1.20;1.10;;;21.50;92.60;22.80;97078.00;;;;5064021;28;20200;-70
2022/06/10 11:12:17;;;;;;;1.07;0.90;;;21.50;92.60;22.90;97088.00;;;;5057847;28;20235;-72
2022/06/10 11:15:18;;;;;;;1.10;1.00;;;21.50;92.50;22.90;97084.00;;;;5072167;28;20243;-72
2022/06/10 11:18:15;;;;;;;1.07;0.97;;;21.50;92.50;23.30;97081.00;;;;5070415;28;20586;-71
2022/06/10 11:21:04;;;;;;;1.23;1.13;;;21.50;93.60;23.40;97085.00;;;;5064423;28;20275;-71
2022/06/10 11:23:55;;;;;;;2.63;1.50;;;21.60;93.30;23.40;97093.00;;;;5067128;28;20203;-73
2022/06/10 11:26:51;;;;;;;1.00;0.90;;;21.70;93.80;23.40;97091.00;;;;5056437;28;20243;-72
2022/06/10 11:29:43;;;;;;;1.10;0.83;;;21.80;93.50;23.20;97095.00;;;;5065197;28;20208;-70
2022/06/10 11:32:40;;;;;;;2.20;1.00;;;21.80;93.20;23.30;97088.00;;;;5060136;28;20219;-69
2022/06/10 11:35:32;;;;;;;1.57;1.20;;;21.80;93.20;23.40;97095.00;;;;5061974;28;20695;-71
2022/06/10 11:38:26;;;;;;;1.27;1.17;;;21.90;93.90;23.10;97099.00;;;;5059410;28;20201;-73
2022/06/10 11:41:29;;;;;;;0.83;0.63;;;21.80;93.90;23.10;97092.00;;;;5064306;28;20204;-69
2022/06/10 11:44:22;;;;;;;0.87;0.87;;;21.70;94.20;23.00;97108.00;;;;5062101;28;20195;-72
2022/06/10 11:47:20;;;;;;;3.40;0.93;;;21.70;94.30;23.10;97107.00;;;;5061913;28;20204;-69
2022/06/10 11:50:19;;;;;;;1.27;1.17;;;21.70;94.00;22.60;97099.00;;;;5062993;28;20197;-71
2022/06/10 11:53:16;;;;;;;1.30;0.80;;;21.70;93.40;22.80;97097.00;;;;5058325;28;20651;-71
2022/06/10 11:59:46;;;;;;;3.77;1.30;;;21.50;94.70;23.20;97107.00;;;;5061776;28;20203;-72
2022/06/10 12:02:40;;;;;;;1.00;0.90;;;21.60;94.50;23.40;97101.00;;;;5060744;28;20201;-72
2022/06/10 12:05:44;;;;;;;1.30;1.20;;;21.60;95.00;23.10;97102.00;;;;5058437;28;21002;-69
2022/06/10 12:08:50;;;;;;;1.03;0.90;;;21.70;96.80;22.80;97098.00;;;;5059058;28;20210;-72
2022/06/10 12:11:45;;;;;;;1.37;1.27;;;21.60;96.00;22.80;97112.00;;;;5060045;28;20208;-73
2022/06/10 12:14:41;;;;;;;2.23;1.07;;;21.50;95.80;22.90;97104.00;;;;5058085;28;20196;-72
2022/06/10 12:17:33;;;;;;;1.37;1.27;;;21.40;95.60;22.80;97097.00;;;;5061084;28;20212;-69
2022/06/10 12:20:34;;;;;;;1.57;0.70;;;21.50;95.40;23.30;97106.00;;;;5056942;28;20211;-70
2022/06/10 12:23:27;;;;;;;1.10;1.00;;;21.50;96.00;22.80;97106.00;;;;5054320;28;20199;-71
2022/06/10 12:26:28;;;;;;;1.30;1.20;;;21.50;95.60;23.00;97115.00;;;;5061708;28;20465;-72
2022/06/10 12:29:23;;;;;;;1.47;0.90;;;21.50;95.40;22.80;97108.00;;;;5060122;28;20243;-72
2022/06/10 12:32:25;;;;;;;0.70;0.70;;;21.50;95.00;23.20;97100.00;;;;5057223;28;20946;-71
2022/06/10 12:35:21;;;;;;;2.40;0.77;;;21.60;95.50;23.00;97106.00;;;;5055624;28;20224;-72
2022/06/10 12:38:19;;;;;;;0.90;0.90;;;21.60;94.50;22.90;97099.00;;;;5058618;28;20870;-73
2022/06/10 12:41:15;;;;;;;0.67;0.67;;;21.70;95.20;23.80;97066.00;;;;5060367;28;20928;-72
2022/06/10 12:44:13;;;;;;;0.60;0.60;;;21.90;95.70;23.50;97092.00;;;;5059274;28;20695;-71
2022/06/10 12:47:07;;;;;;;0.50;0.50;;;22.00;94.30;23.90;97081.00;;;;5059261;28;20215;-70
2022/06/10 12:50:03;;;;;;;0.60;0.60;;;22.20;94.70;25.20;97030.00;;;;5061237;28;20204;-71
2022/06/10 12:53:37;;;;;;;0.53;0.53;;;22.70;94.20;26.80;97028.00;;;;5055100;28;20220;-70
2022/06/10 12:56:31;;;;;;;1.73;0.97;;;23.60;93.90;27.40;97078.00;;;;5057419;28;20230;-71
2022/06/10 12:59:24;;;;;;;0.70;0.70;;;24.30;92.10;26.00;97026.00;;;;5058021;28;20214;-72
2022/06/10 13:02:34;;;;;;;1.03;0.60;;;24.40;90.80;27.00;97093.00;;;;5054858;28;20679;-70
2022/06/10 13:05:27;;;;;;;1.67;0.87;;;24.90;90.50;26.70;97104.00;;;;5057164;28;20221;-72
2022/06/10 13:08:51;;;;;;;0.40;0.40;;;24.90;89.80;26.00;97100.00;;;;5043781;28;20207;-73